Mill River, MA

5:11 AM EDT on August 29, 2015 (GMT -0400)
South Mill River | | Change Station
CLOSE
Current Station
Personal Weather Station
Location: New Marlborough, MA
Elevation: 797 ft
Nearby Weather Stations

Elev 797 ft 42.10 °N, 73.27 °W | Updated 6 seconds ago

Partly Cloudy
Partly Cloudy
48.2 °F
Feels Like 48 °F
N
0.0
Wind Variable Wind from NNE
Gusts 0.0 mph

Today
High -- | Low -- °F
--% Chance of Precip.
Yesterday
High -- | Low -- °F
Precip. -- in
6:15 AM 7:32 PM
Full, 100% visible
Pressure 30.15 in
Visibility 0.2 miles
Clouds
Windchill 48 °F
Dew Point 48 °F
Humidity 99%
Rainfall 0.00 in
Snow Depth Not available.
UV Not available.
Pollen 9.70 out of 12
Air Quality Not available.
Flu Activity Not available.
METAR KPSF 290854Z AUTO 00000KT 1/4SM FG VV001 10/09 A3020 RMK AO2 SLP209 T01000094 55001
Pressure 30.15 in
Visibility 0.2 miles
Clouds
Windchill 48 °F
Dew Point 48 °F
Humidity 99%
Rainfall 0.00 in
Snow Depth Not available.
UV Not available.
Pollen 9.70 out of 12
Air Quality Not available.
Flu Activity Not available.
METAR KPSF 290854Z AUTO 00000KT 1/4SM FG VV001 10/09 A3020 RMK AO2 SLP209 T01000094 55001

10-Day Weather Forecast

×

Almanac

Astronomy

Aug. 29, 2015 Rise Set
Actual Time
Civil Twilight
Nautical Twilight
Astronomical Twilight
Moon
Length of Visible Light
Length of Day
Tomorrow will be .
, % of the Moon is Illuminated

Today's Extremes

State Highs State Lows

Community

WunderPhotos

Upload Photos

1,850,634 photos uploaded!

WunderBlogs® & News

Nearby

Air Quality

  Air Quality AQ Index Pollutant
Not available.

Snow Depth

Station Depth Elevation

Earthquake Activity

City Distance Mag. Time & Date
Minimum magnitude displayed is 2.5.

Coastal Water Temperatures

Place Temperature

Stations

Nearby Weather Stations

Station Location Temp. Windchill Dew Point Humidity Wind Precip. Elev Updated Type